createdAt,value
2023-01-28T00:01:29.821Z,99176.70
2023-01-28T00:06:35.799Z,99172.67
2023-01-28T00:11:43.786Z,99173.48
2023-01-28T00:16:48.056Z,99175.40
2023-01-28T00:21:56.924Z,99171.63
2023-01-28T00:26:59.741Z,99167.77
2023-01-28T00:32:02.623Z,99175.71
2023-01-28T00:37:27.859Z,99175.70
2023-01-28T00:42:46.767Z,99176.55
2023-01-28T00:47:49.268Z,99177.68
2023-01-28T00:52:55.092Z,99174.20
2023-01-28T00:58:17.661Z,99176.38
2023-01-28T01:03:26.367Z,99174.67
2023-01-28T01:08:41.099Z,99180.11
2023-01-28T01:13:58.130Z,99180.94
2023-01-28T01:19:01.484Z,99182.64
2023-01-28T01:24:07.008Z,99183.48
2023-01-28T01:29:09.944Z,99192.02
2023-01-28T01:34:19.762Z,99194.78
2023-01-28T01:39:24.701Z,99200.84
2023-01-28T01:45:18.620Z,99196.95
2023-01-28T01:50:36.688Z,99200.70
2023-01-28T01:55:43.557Z,99202.84
2023-01-28T02:00:49.083Z,99207.76
2023-01-28T02:05:54.983Z,99202.55
2023-01-28T02:11:05.401Z,99201.54
2023-01-28T02:16:09.399Z,99204.63
2023-01-28T02:21:51.230Z,99204.23
2023-01-28T02:27:25.300Z,99204.26
2023-01-28T02:32:54.191Z,99211.77
2023-01-28T02:38:19.476Z,99212.21
2023-01-28T02:43:40.352Z,99217.28
2023-01-28T02:48:43.103Z,99217.55
2023-01-28T02:54:12.910Z,99227.07
2023-01-28T02:59:31.398Z,99228.30
2023-01-28T03:05:26.687Z,99233.35
2023-01-28T03:10:29.786Z,99238.62
2023-01-28T03:16:00.047Z,99230.48
2023-01-28T03:21:43.933Z,99233.45
2023-01-28T03:27:33.752Z,99235.41
2023-01-28T03:33:06.526Z,99236.75
2023-01-28T03:38:23.791Z,99237.60
2023-01-28T03:43:42.829Z,99237.75
2023-01-28T03:48:47.960Z,99245.72
2023-01-28T03:53:54.328Z,99240.98
2023-01-28T03:59:08.373Z,99233.15
2023-01-28T04:04:22.900Z,99232.30
2023-01-28T04:09:29.770Z,99233.07
2023-01-28T04:14:53.225Z,99238.73
2023-01-28T04:20:06.952Z,99239.52
2023-01-28T04:25:10.148Z,99243.79
2023-01-28T04:30:12.863Z,99234.44
2023-01-28T04:35:32.750Z,99241.95
2023-01-28T04:41:24.387Z,99243.50
2023-01-28T04:46:33.275Z,99241.85
2023-01-28T04:51:49.143Z,99240.56
2023-01-28T04:57:11.139Z,99250.09
2023-01-28T05:02:19.086Z,99246.20
2023-01-28T05:07:35.876Z,99252.40
2023-01-28T05:12:50.223Z,99247.34
2023-01-28T05:18:00.905Z,99250.89
2023-01-28T05:23:16.391Z,99256.80
2023-01-28T05:28:29.363Z,99263.90
2023-01-28T05:33:42.606Z,99266.70
2023-01-28T05:38:47.570Z,99270.06
2023-01-28T05:43:50.613Z,99273.38
2023-01-28T05:49:08.640Z,99280.79
2023-01-28T05:54:58.613Z,99278.77
2023-01-28T06:00:16.177Z,99279.86
2023-01-28T06:05:32.034Z,99288.71
2023-01-28T06:10:47.448Z,99293.14
2023-01-28T06:15:54.995Z,99295.46
2023-01-28T06:21:44.018Z,99299.59
2023-01-28T06:26:47.825Z,99306.63
2023-01-28T06:31:53.493Z,99321.60
2023-01-28T06:37:05.090Z,99326.58
2023-01-28T06:42:09.678Z,99328.61
2023-01-28T06:47:12.344Z,99328.26
2023-01-28T06:52:15.269Z,99336.26
2023-01-28T06:57:17.764Z,99338.54
2023-01-28T07:02:20.652Z,99344.07
2023-01-28T07:07:31.843Z,99351.53
2023-01-28T07:12:37.206Z,99354.85
2023-01-28T07:17:43.267Z,99359.06
2023-01-28T07:22:56.126Z,99358.49
2023-01-28T07:27:58.608Z,99367.67
2023-01-28T07:33:01.686Z,99370.21
2023-01-28T07:38:06.443Z,99375.55
2023-01-28T07:43:14.359Z,99377.94
2023-01-28T07:48:24.251Z,99382.95
2023-01-28T07:53:34.419Z,99383.99
2023-01-28T07:58:39.354Z,99389.06
2023-01-28T08:03:46.923Z,99391.41
2023-01-28T08:08:51.548Z,99390.23
2023-01-28T08:13:53.765Z,99393.08
2023-01-28T08:18:58.855Z,99402.00
2023-01-28T08:24:03.324Z,99406.36
2023-01-28T08:29:06.327Z,99408.30
2023-01-28T08:34:14.470Z,99408.86
2023-01-28T08:39:25.849Z,99409.46
2023-01-28T08:44:37.043Z,99406.78
2023-01-28T08:49:42.650Z,99408.93
2023-01-28T08:54:45.124Z,99413.23
2023-01-28T08:59:53.256Z,99414.21
2023-01-28T09:04:58.616Z,99416.30
2023-01-28T09:10:01.243Z,99413.83
2023-01-28T09:15:05.108Z,99416.92
2023-01-28T09:20:33.910Z,99423.55
2023-01-28T09:25:37.049Z,99428.48
2023-01-28T09:30:42.867Z,99429.77
2023-01-28T09:35:45.556Z,99435.21
2023-01-28T09:40:51.428Z,99433.64
2023-01-28T09:45:58.236Z,99436.98
2023-01-28T09:51:01.863Z,99436.95
2023-01-28T09:56:14.395Z,99429.65
2023-01-28T10:01:19.973Z,99419.81
2023-01-28T10:06:51.081Z,99418.23
2023-01-28T10:12:37.374Z,99420.30
2023-01-28T10:17:46.130Z,99414.73
2023-01-28T10:23:02.712Z,99412.23
2023-01-28T10:28:21.091Z,99415.45
2023-01-28T10:33:28.969Z,99414.17
2023-01-28T10:38:31.923Z,99410.88
2023-01-28T10:43:37.676Z,99407.36
2023-01-28T10:48:47.360Z,99409.52
2023-01-28T10:53:49.682Z,99411.61
2023-01-28T10:59:03.169Z,99412.70
2023-01-28T11:04:07.579Z,99415.02
2023-01-28T11:09:22.401Z,99417.12
2023-01-28T11:14:28.104Z,99408.87
2023-01-28T11:19:39.019Z,99408.76
2023-01-28T11:24:43.147Z,99406.34
2023-01-28T11:29:46.543Z,99405.45
2023-01-28T11:34:51.588Z,99402.98
2023-01-28T11:40:24.313Z,99398.33
2023-01-28T11:45:42.426Z,99403.30
2023-01-28T11:50:58.361Z,99397.83
2023-01-28T11:56:45.485Z,99393.58
2023-01-28T12:02:21.489Z,99395.52
2023-01-28T12:07:36.094Z,99392.25
2023-01-28T12:12:45.703Z,99394.03
2023-01-28T12:17:56.760Z,99391.92
2023-01-28T12:23:24.609Z,99389.48
2023-01-28T12:28:41.734Z,99392.13
2023-01-28T12:34:38.704Z,99388.17
2023-01-28T12:40:33.693Z,99388.98
2023-01-28T12:45:51.849Z,99395.55
2023-01-28T12:51:02.423Z,99395.63
2023-01-28T12:56:16.944Z,99398.70
2023-01-28T13:01:25.861Z,99400.93
2023-01-28T13:06:33.748Z,99404.79
2023-01-28T13:11:37.164Z,99405.48
2023-01-28T13:16:39.579Z,99405.91
2023-01-28T13:21:49.156Z,99408.95
2023-01-28T13:26:55.068Z,99410.09
2023-01-28T13:32:03.391Z,99410.41
2023-01-28T13:37:28.549Z,99415.15
2023-01-28T13:42:35.382Z,99422.89
2023-01-28T13:47:41.022Z,99424.45
2023-01-28T13:52:50.716Z,99428.17
2023-01-28T13:58:31.619Z,99431.54
2023-01-28T14:03:58.700Z,99431.42
2023-01-28T14:09:31.914Z,99432.06
2023-01-28T14:15:16.582Z,99433.61
2023-01-28T14:20:32.735Z,99437.73
2023-01-28T14:26:00.055Z,99438.55
2023-01-28T14:31:32.918Z,99443.18
2023-01-28T14:36:40.935Z,99445.90
2023-01-28T14:41:48.267Z,99449.10
2023-01-28T14:47:17.908Z,99459.25
2023-01-28T14:52:25.429Z,99463.16
2023-01-28T14:57:44.868Z,99465.11
2023-01-28T15:02:46.909Z,99469.27
2023-01-28T15:07:49.725Z,99471.58
2023-01-28T15:13:00.296Z,99473.75
2023-01-28T15:18:25.508Z,99480.95
2023-01-28T15:23:36.793Z,99483.09
2023-01-28T15:28:40.666Z,99483.71
2023-01-28T15:33:42.954Z,99493.59
2023-01-28T15:38:45.189Z,99498.02
2023-01-28T15:43:49.755Z,99501.63
2023-01-28T15:49:04.028Z,99511.07
2023-01-28T15:54:11.099Z,99522.14
2023-01-28T15:59:16.136Z,99527.36
2023-01-28T16:04:30.025Z,99531.73
2023-01-28T16:09:34.726Z,99531.98
2023-01-28T16:14:49.702Z,99534.64
2023-01-28T16:19:59.114Z,99532.75
2023-01-28T16:25:01.979Z,99538.70
2023-01-28T16:30:06.094Z,99536.95
2023-01-28T16:35:23.270Z,99547.41
2023-01-28T16:40:25.613Z,99547.52
2023-01-28T16:45:27.860Z,99548.75
2023-01-28T16:50:32.682Z,99546.22
2023-01-28T16:55:35.224Z,99544.53
2023-01-28T17:00:37.314Z,99551.05
2023-01-28T17:05:39.493Z,99554.74
2023-01-28T17:10:41.551Z,99558.82
2023-01-28T17:15:43.477Z,99553.98
2023-01-28T17:20:45.488Z,99555.80
2023-01-28T17:25:47.608Z,99551.66
2023-01-28T17:30:49.987Z,99552.57
2023-01-28T17:35:52.836Z,99558.10
2023-01-28T17:40:54.986Z,99563.06
2023-01-28T17:45:57.250Z,99566.46
2023-01-28T17:50:59.691Z,99571.64
2023-01-28T17:56:01.634Z,99571.81
2023-01-28T18:01:10.192Z,99586.83
2023-01-28T18:06:14.692Z,99586.66
2023-01-28T18:11:21.557Z,99590.33
2023-01-28T18:16:24.845Z,99586.95
2023-01-28T18:21:51.774Z,99590.28
2023-01-28T18:26:59.758Z,99593.73
2023-01-28T18:32:03.229Z,99599.65
2023-01-28T18:37:07.653Z,99592.52
2023-01-28T18:42:10.020Z,99594.60
2023-01-28T18:47:12.092Z,99595.35
2023-01-28T18:52:14.677Z,99590.17
2023-01-28T18:57:26.068Z,99606.56
2023-01-28T19:02:28.622Z,99606.05
2023-01-28T19:07:31.725Z,99608.59
2023-01-28T19:12:37.158Z,99610.91
2023-01-28T19:17:39.597Z,99612.92
2023-01-28T19:22:44.402Z,99611.06
2023-01-28T19:27:46.420Z,99621.62
2023-01-28T19:32:48.636Z,99621.74
2023-01-28T19:37:51.017Z,99620.28
2023-01-28T19:42:53.966Z,99620.77
2023-01-28T19:47:59.323Z,99621.09
2023-01-28T19:53:01.493Z,99628.27
2023-01-28T19:58:04.126Z,99637.41
2023-01-28T20:03:08.321Z,99636.31
2023-01-28T20:08:10.886Z,99645.35
2023-01-28T20:13:16.153Z,99650.53
2023-01-28T20:18:18.983Z,99656.56
2023-01-28T20:23:36.081Z,99658.23
2023-01-28T20:28:41.947Z,99658.51
2023-01-28T20:33:49.844Z,99660.15
2023-01-28T20:38:52.044Z,99656.85
2023-01-28T20:43:55.058Z,99663.16
2023-01-28T20:48:59.326Z,99667.09
2023-01-28T20:54:02.014Z,99670.58
2023-01-28T20:59:06.145Z,99676.81
2023-01-28T21:04:10.763Z,99678.25
2023-01-28T21:09:13.086Z,99674.14
2023-01-28T21:14:17.223Z,99677.83
2023-01-28T21:19:21.847Z,99681.80
2023-01-28T21:24:24.236Z,99686.05
2023-01-28T21:29:26.830Z,99693.55
2023-01-28T21:34:33.261Z,99690.92
2023-01-28T21:39:35.810Z,99701.93
2023-01-28T21:44:37.710Z,99702.80
2023-01-28T21:49:40.468Z,99703.45
2023-01-28T21:54:45.492Z,99707.28
2023-01-28T21:59:47.801Z,99703.61
2023-01-28T22:04:50.571Z,99709.08
2023-01-28T22:09:58.214Z,99704.09
2023-01-28T22:15:10.625Z,99712.66
2023-01-28T22:20:13.887Z,99706.38
2023-01-28T22:25:16.894Z,99720.77
2023-01-28T22:30:19.214Z,99723.39
2023-01-28T22:35:24.094Z,99725.80
2023-01-28T22:40:26.065Z,99736.66
2023-01-28T22:45:28.919Z,99740.87
2023-01-28T22:50:31.255Z,99741.61
2023-01-28T22:55:33.743Z,99739.73
2023-01-28T23:00:35.862Z,99736.42
2023-01-28T23:05:38.549Z,99738.71
2023-01-28T23:10:47.133Z,99731.53
2023-01-28T23:16:08.981Z,99726.10
2023-01-28T23:21:40.609Z,99720.36
2023-01-28T23:26:42.545Z,99723.42
2023-01-28T23:31:47.415Z,99719.27
2023-01-28T23:36:50.617Z,99716.98
2023-01-28T23:41:53.269Z,99714.70
2023-01-28T23:46:56.343Z,99718.30
2023-01-28T23:51:58.645Z,99720.54
2023-01-28T23:57:01.195Z,99711.72
